sensor_id;sensor_type;location;lat;lon;timestamp;P1;durP1;ratioP1;P2;durP2;ratioP2
51664;SDS011;37751;52.408;12.536;2022-08-30T00:02:17;2.55;;;1.50;;
51664;SDS011;37751;52.408;12.536;2022-08-30T00:04:44;3.50;;;1.30;;
51664;SDS011;37751;52.408;12.536;2022-08-30T00:07:10;1.95;;;1.70;;
51664;SDS011;37751;52.408;12.536;2022-08-30T00:09:37;4.72;;;1.55;;
51664;SDS011;37751;52.408;12.536;2022-08-30T00:12:04;1.98;;;1.67;;
51664;SDS011;37751;52.408;12.536;2022-08-30T00:14:31;1.80;;;1.45;;
51664;SDS011;37751;52.408;12.536;2022-08-30T00:16:58;7.47;;;2.05;;
51664;SDS011;37751;52.408;12.536;2022-08-30T00:19:24;3.70;;;1.42;;
51664;SDS011;37751;52.408;12.536;2022-08-30T00:21:51;6.05;;;1.75;;
51664;SDS011;37751;52.408;12.536;2022-08-30T00:24:18;3.30;;;1.70;;
51664;SDS011;37751;52.408;12.536;2022-08-30T00:26:44;4.32;;;2.03;;
51664;SDS011;37751;52.408;12.536;2022-08-30T00:29:11;2.58;;;1.77;;
51664;SDS011;37751;52.408;12.536;2022-08-30T00:31:39;2.50;;;1.88;;
51664;SDS011;37751;52.408;12.536;2022-08-30T00:34:05;2.25;;;1.70;;
51664;SDS011;37751;52.408;12.536;2022-08-30T00:36:32;6.10;;;2.20;;
51664;SDS011;37751;52.408;12.536;2022-08-30T00:38:59;2.00;;;1.58;;
51664;SDS011;37751;52.408;12.536;2022-08-30T00:41:26;2.17;;;1.98;;
51664;SDS011;37751;52.408;12.536;2022-08-30T00:43:52;6.03;;;2.08;;
51664;SDS011;37751;52.408;12.536;2022-08-30T00:46:19;5.38;;;1.90;;
51664;SDS011;37751;52.408;12.536;2022-08-30T00:48:47;1.70;;;1.60;;
51664;SDS011;37751;52.408;12.536;2022-08-30T00:51:15;2.65;;;1.90;;
51664;SDS011;37751;52.408;12.536;2022-08-30T00:53:46;2.75;;;2.20;;
51664;SDS011;37751;52.408;12.536;2022-08-30T00:56:19;4.35;;;2.08;;
51664;SDS011;37751;52.408;12.536;2022-08-30T00:58:48;3.22;;;2.35;;
51664;SDS011;37751;52.408;12.536;2022-08-30T01:01:18;2.63;;;2.40;;
51664;SDS011;37751;52.408;12.536;2022-08-30T01:03:46;3.50;;;2.10;;
51664;SDS011;37751;52.408;12.536;2022-08-30T01:06:14;3.92;;;2.20;;
51664;SDS011;37751;52.408;12.536;2022-08-30T01:08:42;7.35;;;2.30;;
51664;SDS011;37751;52.408;12.536;2022-08-30T01:11:12;9.52;;;2.50;;
51664;SDS011;37751;52.408;12.536;2022-08-30T01:13:41;3.25;;;2.50;;
51664;SDS011;37751;52.408;12.536;2022-08-30T01:16:10;5.15;;;2.33;;
51664;SDS011;37751;52.408;12.536;2022-08-30T01:18:37;4.03;;;2.72;;
51664;SDS011;37751;52.408;12.536;2022-08-30T01:23:56;3.25;;;2.85;;
51664;SDS011;37751;52.408;12.536;2022-08-30T01:26:24;3.67;;;2.70;;
51664;SDS011;37751;52.408;12.536;2022-08-30T01:28:56;4.35;;;2.90;;
51664;SDS011;37751;52.408;12.536;2022-08-30T01:31:27;10.18;;;2.95;;
51664;SDS011;37751;52.408;12.536;2022-08-30T01:33:54;6.20;;;2.65;;
51664;SDS011;37751;52.408;12.536;2022-08-30T01:36:21;5.63;;;3.20;;
51664;SDS011;37751;52.408;12.536;2022-08-30T01:38:51;3.90;;;3.35;;
51664;SDS011;37751;52.408;12.536;2022-08-30T01:43:57;4.15;;;3.35;;
51664;SDS011;37751;52.408;12.536;2022-08-30T01:46:28;4.90;;;3.03;;
51664;SDS011;37751;52.408;12.536;2022-08-30T01:49:02;6.75;;;3.55;;
51664;SDS011;37751;52.408;12.536;2022-08-30T01:51:33;5.22;;;3.40;;
51664;SDS011;37751;52.408;12.536;2022-08-30T01:54:01;4.95;;;3.67;;
51664;SDS011;37751;52.408;12.536;2022-08-30T01:56:28;4.38;;;3.92;;
51664;SDS011;37751;52.408;12.536;2022-08-30T01:58:55;4.90;;;3.30;;
51664;SDS011;37751;52.408;12.536;2022-08-30T02:01:28;3.15;;;2.95;;
51664;SDS011;37751;52.408;12.536;2022-08-30T02:03:58;4.00;;;3.47;;
51664;SDS011;37751;52.408;12.536;2022-08-30T02:06:25;4.05;;;3.63;;
51664;SDS011;37751;52.408;12.536;2022-08-30T02:08:52;4.53;;;3.50;;
51664;SDS011;37751;52.408;12.536;2022-08-30T02:11:19;4.05;;;3.53;;
51664;SDS011;37751;52.408;12.536;2022-08-30T02:13:46;6.88;;;3.90;;
51664;SDS011;37751;52.408;12.536;2022-08-30T02:16:14;6.00;;;4.47;;
51664;SDS011;37751;52.408;12.536;2022-08-30T02:18:48;5.63;;;3.40;;
51664;SDS011;37751;52.408;12.536;2022-08-30T02:21:16;6.70;;;3.70;;
51664;SDS011;37751;52.408;12.536;2022-08-30T02:23:43;7.32;;;4.13;;
51664;SDS011;37751;52.408;12.536;2022-08-30T02:26:10;7.03;;;4.22;;
51664;SDS011;37751;52.408;12.536;2022-08-30T02:28:38;5.07;;;3.85;;
51664;SDS011;37751;52.408;12.536;2022-08-30T02:31:15;6.68;;;4.53;;
51664;SDS011;37751;52.408;12.536;2022-08-30T02:33:47;6.78;;;4.32;;
51664;SDS011;37751;52.408;12.536;2022-08-30T02:36:16;4.93;;;4.43;;
51664;SDS011;37751;52.408;12.536;2022-08-30T02:38:46;5.68;;;4.90;;
51664;SDS011;37751;52.408;12.536;2022-08-30T02:41:14;7.93;;;5.03;;
51664;SDS011;37751;52.408;12.536;2022-08-30T02:43:42;4.85;;;4.35;;
51664;SDS011;37751;52.408;12.536;2022-08-30T02:46:09;5.57;;;4.07;;
51664;SDS011;37751;52.408;12.536;2022-08-30T02:48:36;11.43;;;4.88;;
51664;SDS011;37751;52.408;12.536;2022-08-30T02:51:07;8.70;;;4.95;;
51664;SDS011;37751;52.408;12.536;2022-08-30T02:53:39;8.02;;;4.68;;
51664;SDS011;37751;52.408;12.536;2022-08-30T02:56:09;7.85;;;5.18;;
51664;SDS011;37751;52.408;12.536;2022-08-30T02:58:37;10.35;;;4.53;;
51664;SDS011;37751;52.408;12.536;2022-08-30T03:01:05;6.20;;;4.97;;
51664;SDS011;37751;52.408;12.536;2022-08-30T03:03:32;6.20;;;5.25;;
51664;SDS011;37751;52.408;12.536;2022-08-30T03:05:58;6.90;;;5.72;;
51664;SDS011;37751;52.408;12.536;2022-08-30T03:08:25;10.68;;;6.90;;
51664;SDS011;37751;52.408;12.536;2022-08-30T03:10:52;8.70;;;5.47;;
51664;SDS011;37751;52.408;12.536;2022-08-30T03:13:19;6.97;;;6.28;;
51664;SDS011;37751;52.408;12.536;2022-08-30T03:15:46;11.23;;;6.18;;
51664;SDS011;37751;52.408;12.536;2022-08-30T03:18:19;8.25;;;6.60;;
51664;SDS011;37751;52.408;12.536;2022-08-30T03:20:46;12.88;;;7.57;;
51664;SDS011;37751;52.408;12.536;2022-08-30T03:23:19;8.75;;;6.15;;
51664;SDS011;37751;52.408;12.536;2022-08-30T03:25:47;9.30;;;5.85;;
51664;SDS011;37751;52.408;12.536;2022-08-30T03:28:14;8.00;;;6.60;;
51664;SDS011;37751;52.408;12.536;2022-08-30T03:30:41;13.13;;;6.95;;
51664;SDS011;37751;52.408;12.536;2022-08-30T03:33:08;10.80;;;6.45;;
51664;SDS011;37751;52.408;12.536;2022-08-30T03:35:36;8.75;;;6.35;;
51664;SDS011;37751;52.408;12.536;2022-08-30T03:38:03;14.65;;;8.65;;
51664;SDS011;37751;52.408;12.536;2022-08-30T03:40:31;14.02;;;7.85;;
51664;SDS011;37751;52.408;12.536;2022-08-30T03:42:58;20.98;;;9.35;;
51664;SDS011;37751;52.408;12.536;2022-08-30T03:45:25;17.08;;;8.80;;
51664;SDS011;37751;52.408;12.536;2022-08-30T03:47:52;13.65;;;9.57;;
51664;SDS011;37751;52.408;12.536;2022-08-30T03:50:19;14.52;;;9.45;;
51664;SDS011;37751;52.408;12.536;2022-08-30T03:52:46;28.75;;;11.30;;
51664;SDS011;37751;52.408;12.536;2022-08-30T03:55:12;45.63;;;11.55;;
51664;SDS011;37751;52.408;12.536;2022-08-30T03:57:39;22.13;;;11.93;;
51664;SDS011;37751;52.408;12.536;2022-08-30T04:00:09;18.08;;;10.32;;
51664;SDS011;37751;52.408;12.536;2022-08-30T04:02:38;13.50;;;10.32;;
51664;SDS011;37751;52.408;12.536;2022-08-30T04:05:05;15.38;;;9.93;;
51664;SDS011;37751;52.408;12.536;2022-08-30T04:07:33;16.63;;;10.57;;
51664;SDS011;37751;52.408;12.536;2022-08-30T04:10:00;20.27;;;10.15;;
51664;SDS011;37751;52.408;12.536;2022-08-30T04:12:27;17.55;;;9.07;;
51664;SDS011;37751;52.408;12.536;2022-08-30T04:14:54;22.88;;;9.98;;
51664;SDS011;37751;52.408;12.536;2022-08-30T04:17:21;14.85;;;10.10;;
51664;SDS011;37751;52.408;12.536;2022-08-30T04:19:47;19.75;;;10.50;;
51664;SDS011;37751;52.408;12.536;2022-08-30T04:22:14;17.33;;;10.38;;
51664;SDS011;37751;52.408;12.536;2022-08-30T04:24:41;25.92;;;10.80;;
51664;SDS011;37751;52.408;12.536;2022-08-30T04:27:08;33.28;;;10.40;;
51664;SDS011;37751;52.408;12.536;2022-08-30T04:29:35;21.65;;;10.93;;
51664;SDS011;37751;52.408;12.536;2022-08-30T04:32:02;20.38;;;10.70;;
51664;SDS011;37751;52.408;12.536;2022-08-30T04:34:29;12.45;;;10.25;;
51664;SDS011;37751;52.408;12.536;2022-08-30T04:36:56;19.30;;;10.02;;
51664;SDS011;37751;52.408;12.536;2022-08-30T04:39:24;13.25;;;10.25;;
51664;SDS011;37751;52.408;12.536;2022-08-30T04:41:51;14.95;;;9.85;;
51664;SDS011;37751;52.408;12.536;2022-08-30T04:44:18;19.25;;;9.93;;
51664;SDS011;37751;52.408;12.536;2022-08-30T04:46:45;10.05;;;8.73;;
51664;SDS011;37751;52.408;12.536;2022-08-30T04:49:12;15.18;;;9.60;;
51664;SDS011;37751;52.408;12.536;2022-08-30T04:51:39;14.63;;;8.98;;
51664;SDS011;37751;52.408;12.536;2022-08-30T04:54:06;12.13;;;7.70;;
51664;SDS011;37751;52.408;12.536;2022-08-30T04:56:33;13.77;;;9.02;;
51664;SDS011;37751;52.408;12.536;2022-08-30T04:59:00;14.07;;;8.98;;
51664;SDS011;37751;52.408;12.536;2022-08-30T05:01:28;11.05;;;8.48;;
51664;SDS011;37751;52.408;12.536;2022-08-30T05:04:01;9.20;;;7.88;;
51664;SDS011;37751;52.408;12.536;2022-08-30T05:06:29;15.07;;;8.23;;
51664;SDS011;37751;52.408;12.536;2022-08-30T05:08:56;12.40;;;8.75;;
51664;SDS011;37751;52.408;12.536;2022-08-30T05:11:24;14.00;;;9.23;;
51664;SDS011;37751;52.408;12.536;2022-08-30T05:13:51;9.23;;;8.23;;
51664;SDS011;37751;52.408;12.536;2022-08-30T05:16:18;10.23;;;8.50;;
51664;SDS011;37751;52.408;12.536;2022-08-30T05:18:46;10.35;;;8.35;;
51664;SDS011;37751;52.408;12.536;2022-08-30T05:21:16;13.85;;;8.32;;
51664;SDS011;37751;52.408;12.536;2022-08-30T05:23:52;11.18;;;8.35;;
51664;SDS011;37751;52.408;12.536;2022-08-30T05:26:23;11.65;;;8.80;;
51664;SDS011;37751;52.408;12.536;2022-08-30T05:28:55;10.57;;;8.82;;
51664;SDS011;37751;52.408;12.536;2022-08-30T05:31:24;16.30;;;10.07;;
51664;SDS011;37751;52.408;12.536;2022-08-30T05:33:51;15.07;;;10.30;;
51664;SDS011;37751;52.408;12.536;2022-08-30T05:36:20;13.05;;;9.55;;
51664;SDS011;37751;52.408;12.536;2022-08-30T05:38:51;16.58;;;9.23;;
51664;SDS011;37751;52.408;12.536;2022-08-30T05:41:20;13.13;;;9.02;;
51664;SDS011;37751;52.408;12.536;2022-08-30T05:43:53;12.93;;;10.18;;
51664;SDS011;37751;52.408;12.536;2022-08-30T05:46:22;18.00;;;9.77;;
51664;SDS011;37751;52.408;12.536;2022-08-30T05:48:50;13.88;;;9.45;;
51664;SDS011;37751;52.408;12.536;2022-08-30T05:51:18;15.52;;;9.05;;
51664;SDS011;37751;52.408;12.536;2022-08-30T05:53:48;9.82;;;8.30;;
51664;SDS011;37751;52.408;12.536;2022-08-30T05:56:18;10.13;;;7.88;;
51664;SDS011;37751;52.408;12.536;2022-08-30T05:58:50;14.90;;;8.57;;
51664;SDS011;37751;52.408;12.536;2022-08-30T06:01:18;7.90;;;7.10;;
51664;SDS011;37751;52.408;12.536;2022-08-30T06:03:46;10.82;;;7.45;;
51664;SDS011;37751;52.408;12.536;2022-08-30T06:06:13;12.40;;;7.88;;
51664;SDS011;37751;52.408;12.536;2022-08-30T06:08:41;8.25;;;7.10;;
51664;SDS011;37751;52.408;12.536;2022-08-30T06:11:11;7.57;;;6.78;;
51664;SDS011;37751;52.408;12.536;2022-08-30T06:13:39;8.65;;;6.75;;
51664;SDS011;37751;52.408;12.536;2022-08-30T06:16:07;9.93;;;6.28;;
51664;SDS011;37751;52.408;12.536;2022-08-30T06:18:38;7.82;;;6.30;;
51664;SDS011;37751;52.408;12.536;2022-08-30T06:21:04;8.25;;;6.65;;
51664;SDS011;37751;52.408;12.536;2022-08-30T06:23:31;6.93;;;5.63;;
51664;SDS011;37751;52.408;12.536;2022-08-30T06:26:05;7.68;;;6.88;;
51664;SDS011;37751;52.408;12.536;2022-08-30T06:28:33;12.30;;;6.00;;
51664;SDS011;37751;52.408;12.536;2022-08-30T06:31:01;7.53;;;5.78;;
51664;SDS011;37751;52.408;12.536;2022-08-30T06:33:32;7.07;;;5.88;;
51664;SDS011;37751;52.408;12.536;2022-08-30T06:36:06;10.15;;;6.00;;
51664;SDS011;37751;52.408;12.536;2022-08-30T06:38:36;8.23;;;5.90;;
51664;SDS011;37751;52.408;12.536;2022-08-30T06:41:23;12.10;;;5.90;;
51664;SDS011;37751;52.408;12.536;2022-08-30T06:43:53;8.52;;;6.07;;
51664;SDS011;37751;52.408;12.536;2022-08-30T06:46:22;11.45;;;6.13;;
51664;SDS011;37751;52.408;12.536;2022-08-30T06:48:53;9.70;;;6.65;;
51664;SDS011;37751;52.408;12.536;2022-08-30T06:51:23;8.40;;;6.97;;
51664;SDS011;37751;52.408;12.536;2022-08-30T06:53:59;11.60;;;6.68;;
51664;SDS011;37751;52.408;12.536;2022-08-30T06:56:28;8.25;;;6.63;;
51664;SDS011;37751;52.408;12.536;2022-08-30T06:58:56;13.27;;;6.75;;
51664;SDS011;37751;52.408;12.536;2022-08-30T07:01:24;10.02;;;6.18;;
51664;SDS011;37751;52.408;12.536;2022-08-30T07:03:53;11.10;;;6.20;;
51664;SDS011;37751;52.408;12.536;2022-08-30T07:06:21;9.75;;;5.43;;
51664;SDS011;37751;52.408;12.536;2022-08-30T07:08:49;8.15;;;5.35;;
51664;SDS011;37751;52.408;12.536;2022-08-30T07:11:35;6.15;;;5.55;;
51664;SDS011;37751;52.408;12.536;2022-08-30T07:14:04;85.15;;;7.10;;
51664;SDS011;37751;52.408;12.536;2022-08-30T07:16:32;7.70;;;4.40;;
51664;SDS011;37751;52.408;12.536;2022-08-30T07:18:59;6.03;;;4.53;;
51664;SDS011;37751;52.408;12.536;2022-08-30T07:21:33;6.70;;;3.72;;
51664;SDS011;37751;52.408;12.536;2022-08-30T07:24:03;6.70;;;3.63;;
51664;SDS011;37751;52.408;12.536;2022-08-30T07:26:39;7.65;;;4.30;;
51664;SDS011;37751;52.408;12.536;2022-08-30T07:29:09;6.38;;;3.75;;
51664;SDS011;37751;52.408;12.536;2022-08-30T07:31:35;4.43;;;2.75;;
51664;SDS011;37751;52.408;12.536;2022-08-30T07:34:03;2.92;;;2.65;;
51664;SDS011;37751;52.408;12.536;2022-08-30T07:36:32;3.30;;;2.33;;
51664;SDS011;37751;52.408;12.536;2022-08-30T07:39:00;5.53;;;2.20;;
51664;SDS011;37751;52.408;12.536;2022-08-30T07:41:32;3.92;;;2.05;;
51664;SDS011;37751;52.408;12.536;2022-08-30T07:44:04;2.65;;;1.95;;
51664;SDS011;37751;52.408;12.536;2022-08-30T07:46:34;4.68;;;2.00;;
51664;SDS011;37751;52.408;12.536;2022-08-30T07:49:02;2.08;;;1.70;;
51664;SDS011;37751;52.408;12.536;2022-08-30T07:51:36;2.35;;;2.15;;
51664;SDS011;37751;52.408;12.536;2022-08-30T07:54:03;2.38;;;1.30;;
51664;SDS011;37751;52.408;12.536;2022-08-30T07:56:30;1.80;;;1.60;;
51664;SDS011;37751;52.408;12.536;2022-08-30T07:58:57;1.67;;;1.50;;
51664;SDS011;37751;52.408;12.536;2022-08-30T08:01:24;1.40;;;1.30;;
51664;SDS011;37751;52.408;12.536;2022-08-30T08:03:51;1.40;;;1.30;;
51664;SDS011;37751;52.408;12.536;2022-08-30T08:06:18;1.40;;;1.27;;
51664;SDS011;37751;52.408;12.536;2022-08-30T08:08:47;2.28;;;1.60;;
51664;SDS011;37751;52.408;12.536;2022-08-30T08:11:17;3.05;;;1.75;;
51664;SDS011;37751;52.408;12.536;2022-08-30T08:13:47;1.73;;;1.58;;
51664;SDS011;37751;52.408;12.536;2022-08-30T08:16:20;3.67;;;1.30;;
51664;SDS011;37751;52.408;12.536;2022-08-30T08:18:50;1.00;;;0.90;;
51664;SDS011;37751;52.408;12.536;2022-08-30T08:21:19;1.45;;;1.10;;
51664;SDS011;37751;52.408;12.536;2022-08-30T08:23:48;2.42;;;1.25;;
51664;SDS011;37751;52.408;12.536;2022-08-30T08:26:16;1.30;;;1.20;;
51664;SDS011;37751;52.408;12.536;2022-08-30T08:28:44;3.03;;;1.60;;
51664;SDS011;37751;52.408;12.536;2022-08-30T08:31:22;5.03;;;1.20;;
51664;SDS011;37751;52.408;12.536;2022-08-30T08:33:59;3.55;;;1.38;;
51664;SDS011;37751;52.408;12.536;2022-08-30T08:36:31;3.63;;;1.33;;
51664;SDS011;37751;52.408;12.536;2022-08-30T08:38:59;1.20;;;1.10;;
51664;SDS011;37751;52.408;12.536;2022-08-30T08:43:57;3.67;;;1.05;;
51664;SDS011;37751;52.408;12.536;2022-08-30T08:46:27;1.10;;;1.00;;
51664;SDS011;37751;52.408;12.536;2022-08-30T08:49:04;1.08;;;0.95;;
51664;SDS011;37751;52.408;12.536;2022-08-30T08:51:34;2.30;;;0.95;;
51664;SDS011;37751;52.408;12.536;2022-08-30T08:54:29;2.15;;;1.20;;
51664;SDS011;37751;52.408;12.536;2022-08-30T08:57:24;1.67;;;1.27;;
51664;SDS011;37751;52.408;12.536;2022-08-30T09:00:02;1.30;;;0.90;;
51664;SDS011;37751;52.408;12.536;2022-08-30T09:02:40;1.42;;;0.98;;
51664;SDS011;37751;52.408;12.536;2022-08-30T09:05:17;3.63;;;1.10;;
51664;SDS011;37751;52.408;12.536;2022-08-30T09:07:49;1.48;;;1.10;;
51664;SDS011;37751;52.408;12.536;2022-08-30T09:10:26;1.35;;;1.25;;
51664;SDS011;37751;52.408;12.536;2022-08-30T09:13:15;1.10;;;1.00;;
51664;SDS011;37751;52.408;12.536;2022-08-30T09:15:44;2.85;;;1.00;;
51664;SDS011;37751;52.408;12.536;2022-08-30T09:18:12;1.85;;;1.23;;
51664;SDS011;37751;52.408;12.536;2022-08-30T09:20:48;4.45;;;1.10;;
51664;SDS011;37751;52.408;12.536;2022-08-30T09:23:24;2.15;;;1.20;;
51664;SDS011;37751;52.408;12.536;2022-08-30T09:25:54;1.60;;;1.27;;
51664;SDS011;37751;52.408;12.536;2022-08-30T09:28:31;2.45;;;1.20;;
51664;SDS011;37751;52.408;12.536;2022-08-30T09:31:26;1.95;;;1.13;;
51664;SDS011;37751;52.408;12.536;2022-08-30T09:36:39;4.13;;;1.88;;
51664;SDS011;37751;52.408;12.536;2022-08-30T09:39:19;1.83;;;1.27;;
51664;SDS011;37751;52.408;12.536;2022-08-30T09:44:54;1.70;;;0.95;;
51664;SDS011;37751;52.408;12.536;2022-08-30T09:47:36;2.70;;;1.02;;
51664;SDS011;37751;52.408;12.536;2022-08-30T09:50:26;4.25;;;0.88;;
51664;SDS011;37751;52.408;12.536;2022-08-30T09:53:03;1.63;;;0.95;;
51664;SDS011;37751;52.408;12.536;2022-08-30T09:58:41;1.60;;;0.95;;
51664;SDS011;37751;52.408;12.536;2022-08-30T10:01:41;2.38;;;0.80;;
51664;SDS011;37751;52.408;12.536;2022-08-30T10:07:07;2.13;;;1.10;;
51664;SDS011;37751;52.408;12.536;2022-08-30T10:09:59;1.13;;;0.90;;
51664;SDS011;37751;52.408;12.536;2022-08-30T10:12:45;1.48;;;0.90;;
51664;SDS011;37751;52.408;12.536;2022-08-30T10:15:30;1.33;;;0.82;;
51664;SDS011;37751;52.408;12.536;2022-08-30T10:18:26;3.15;;;1.10;;
51664;SDS011;37751;52.408;12.536;2022-08-30T10:21:06;3.17;;;1.00;;
51664;SDS011;37751;52.408;12.536;2022-08-30T10:26:30;2.28;;;1.10;;
51664;SDS011;37751;52.408;12.536;2022-08-30T10:31:43;1.35;;;0.98;;
51664;SDS011;37751;52.408;12.536;2022-08-30T10:37:25;1.35;;;0.90;;
51664;SDS011;37751;52.408;12.536;2022-08-30T10:39:56;3.00;;;1.08;;
51664;SDS011;37751;52.408;12.536;2022-08-30T10:43:21;1.30;;;1.20;;
51664;SDS011;37751;52.408;12.536;2022-08-30T10:45:54;1.48;;;1.38;;
51664;SDS011;37751;52.408;12.536;2022-08-30T10:51:07;2.95;;;1.13;;
51664;SDS011;37751;52.408;12.536;2022-08-30T10:54:14;2.60;;;1.40;;
51664;SDS011;37751;52.408;12.536;2022-08-30T10:56:44;1.40;;;1.27;;
51664;SDS011;37751;52.408;12.536;2022-08-30T10:59:17;1.67;;;0.95;;
51664;SDS011;37751;52.408;12.536;2022-08-30T11:13:49;4.43;;;4.03;;
51664;SDS011;37751;52.408;12.536;2022-08-30T11:16:32;7.90;;;4.10;;
51664;SDS011;37751;52.408;12.536;2022-08-30T11:19:28;4.47;;;3.92;;
51664;SDS011;37751;52.408;12.536;2022-08-30T11:22:08;6.30;;;4.13;;
51664;SDS011;37751;52.408;12.536;2022-08-30T11:28:04;3.85;;;3.50;;
51664;SDS011;37751;52.408;12.536;2022-08-30T11:33:42;8.07;;;4.28;;
51664;SDS011;37751;52.408;12.536;2022-08-30T11:35:49;3.72;;;3.08;;
51664;SDS011;37751;52.408;12.536;2022-08-30T12:04:10;3.25;;;2.92;;
51664;SDS011;37751;52.408;12.536;2022-08-30T12:06:58;10.00;;;2.80;;
51664;SDS011;37751;52.408;12.536;2022-08-30T12:14:49;4.90;;;2.70;;
51664;SDS011;37751;52.408;12.536;2022-08-30T12:17:25;3.40;;;2.60;;
51664;SDS011;37751;52.408;12.536;2022-08-30T12:20:39;2.47;;;2.28;;
51664;SDS011;37751;52.408;12.536;2022-08-30T12:25:48;4.05;;;3.25;;
51664;SDS011;37751;52.408;12.536;2022-08-30T12:28:36;3.33;;;2.50;;
51664;SDS011;37751;52.408;12.536;2022-08-30T12:31:12;2.15;;;1.90;;
51664;SDS011;37751;52.408;12.536;2022-08-30T12:33:45;3.95;;;2.20;;
51664;SDS011;37751;52.408;12.536;2022-08-30T12:36:48;3.10;;;1.95;;
51664;SDS011;37751;52.408;12.536;2022-08-30T12:39:15;2.30;;;2.10;;
51664;SDS011;37751;52.408;12.536;2022-08-30T12:41:46;2.10;;;1.90;;
51664;SDS011;37751;52.408;12.536;2022-08-30T12:44:21;2.35;;;2.00;;
51664;SDS011;37751;52.408;12.536;2022-08-30T12:46:54;1.83;;;1.30;;
51664;SDS011;37751;52.408;12.536;2022-08-30T12:49:27;5.65;;;1.73;;
51664;SDS011;37751;52.408;12.536;2022-08-30T12:54:52;2.40;;;1.27;;
51664;SDS011;37751;52.408;12.536;2022-08-30T12:57:53;1.70;;;1.50;;
51664;SDS011;37751;52.408;12.536;2022-08-30T13:00:33;1.40;;;1.30;;
51664;SDS011;37751;52.408;12.536;2022-08-30T13:06:04;2.95;;;1.00;;
51664;SDS011;37751;52.408;12.536;2022-08-30T13:13:46;1.38;;;1.20;;
51664;SDS011;37751;52.408;12.536;2022-08-30T13:16:36;2.15;;;1.10;;
51664;SDS011;37751;52.408;12.536;2022-08-30T13:21:56;4.15;;;2.58;;
51664;SDS011;37751;52.408;12.536;2022-08-30T13:24:24;2.60;;;1.75;;
51664;SDS011;37751;52.408;12.536;2022-08-30T13:26:55;3.13;;;1.88;;
51664;SDS011;37751;52.408;12.536;2022-08-30T13:29:36;2.28;;;1.45;;
51664;SDS011;37751;52.408;12.536;2022-08-30T13:32:03;1.60;;;1.50;;
51664;SDS011;37751;52.408;12.536;2022-08-30T13:34:30;4.05;;;1.50;;
51664;SDS011;37751;52.408;12.536;2022-08-30T13:37:00;2.13;;;1.40;;
51664;SDS011;37751;52.408;12.536;2022-08-30T13:39:29;1.75;;;1.17;;
51664;SDS011;37751;52.408;12.536;2022-08-30T13:41:56;1.88;;;1.23;;
51664;SDS011;37751;52.408;12.536;2022-08-30T13:44:43;2.97;;;1.27;;
51664;SDS011;37751;52.408;12.536;2022-08-30T13:47:13;1.23;;;1.00;;
51664;SDS011;37751;52.408;12.536;2022-08-30T13:50:01;1.00;;;0.90;;
51664;SDS011;37751;52.408;12.536;2022-08-30T13:52:30;0.85;;;0.85;;
51664;SDS011;37751;52.408;12.536;2022-08-30T13:54:57;1.70;;;0.68;;
51664;SDS011;37751;52.408;12.536;2022-08-30T13:57:25;0.77;;;0.50;;
51664;SDS011;37751;52.408;12.536;2022-08-30T14:00:15;1.27;;;0.50;;
51664;SDS011;37751;52.408;12.536;2022-08-30T14:02:45;1.02;;;0.60;;
51664;SDS011;37751;52.408;12.536;2022-08-30T14:05:26;1.02;;;0.60;;
51664;SDS011;37751;52.408;12.536;2022-08-30T14:08:22;0.75;;;0.47;;
51664;SDS011;37751;52.408;12.536;2022-08-30T14:11:14;3.40;;;0.40;;
51664;SDS011;37751;52.408;12.536;2022-08-30T14:13:44;1.58;;;0.70;;
51664;SDS011;37751;52.408;12.536;2022-08-30T14:16:33;2.83;;;1.40;;
51664;SDS011;37751;52.408;12.536;2022-08-30T14:19:02;1.65;;;0.88;;
51664;SDS011;37751;52.408;12.536;2022-08-30T14:21:32;5.50;;;0.70;;
51664;SDS011;37751;52.408;12.536;2022-08-30T14:23:59;1.15;;;0.60;;
51664;SDS011;37751;52.408;12.536;2022-08-30T14:26:31;1.38;;;0.70;;
51664;SDS011;37751;52.408;12.536;2022-08-30T14:29:06;1.08;;;0.50;;
51664;SDS011;37751;52.408;12.536;2022-08-30T14:31:37;1.73;;;0.60;;
51664;SDS011;37751;52.408;12.536;2022-08-30T14:34:06;1.85;;;0.50;;
51664;SDS011;37751;52.408;12.536;2022-08-30T14:36:37;0.82;;;0.50;;
51664;SDS011;37751;52.408;12.536;2022-08-30T14:39:08;0.93;;;0.68;;
51664;SDS011;37751;52.408;12.536;2022-08-30T14:41:42;3.33;;;0.57;;
51664;SDS011;37751;52.408;12.536;2022-08-30T14:44:15;1.70;;;0.73;;
51664;SDS011;37751;52.408;12.536;2022-08-30T14:46:43;1.00;;;0.55;;
51664;SDS011;37751;52.408;12.536;2022-08-30T14:49:11;0.43;;;0.40;;
51664;SDS011;37751;52.408;12.536;2022-08-30T14:51:39;1.30;;;0.40;;
51664;SDS011;37751;52.408;12.536;2022-08-30T14:54:08;2.45;;;0.68;;
51664;SDS011;37751;52.408;12.536;2022-08-30T14:56:35;0.52;;;0.40;;
51664;SDS011;37751;52.408;12.536;2022-08-30T14:59:04;1.77;;;0.43;;
51664;SDS011;37751;52.408;12.536;2022-08-30T15:01:33;0.55;;;0.40;;
51664;SDS011;37751;52.408;12.536;2022-08-30T15:04:02;1.00;;;0.38;;
51664;SDS011;37751;52.408;12.536;2022-08-30T15:06:33;0.98;;;0.82;;
51664;SDS011;37751;52.408;12.536;2022-08-30T15:09:02;0.98;;;0.50;;
51664;SDS011;37751;52.408;12.536;2022-08-30T15:11:31;6.45;;;0.98;;
51664;SDS011;37751;52.408;12.536;2022-08-30T15:13:59;5.35;;;0.88;;
51664;SDS011;37751;52.408;12.536;2022-08-30T15:16:28;2.28;;;0.55;;
51664;SDS011;37751;52.408;12.536;2022-08-30T15:18:58;0.50;;;0.45;;
51664;SDS011;37751;52.408;12.536;2022-08-30T15:21:27;1.70;;;0.52;;
51664;SDS011;37751;52.408;12.536;2022-08-30T15:23:57;1.55;;;0.52;;
51664;SDS011;37751;52.408;12.536;2022-08-30T15:26:26;1.88;;;0.50;;
51664;SDS011;37751;52.408;12.536;2022-08-30T15:28:54;1.42;;;0.85;;
51664;SDS011;37751;52.408;12.536;2022-08-30T15:31:25;1.63;;;0.50;;
51664;SDS011;37751;52.408;12.536;2022-08-30T15:33:54;0.65;;;0.50;;
51664;SDS011;37751;52.408;12.536;2022-08-30T15:36:22;1.50;;;0.50;;
51664;SDS011;37751;52.408;12.536;2022-08-30T15:38:51;1.30;;;0.63;;
51664;SDS011;37751;52.408;12.536;2022-08-30T15:41:20;1.98;;;0.80;;
51664;SDS011;37751;52.408;12.536;2022-08-30T15:43:54;1.48;;;0.55;;
51664;SDS011;37751;52.408;12.536;2022-08-30T15:46:24;0.80;;;0.40;;
51664;SDS011;37751;52.408;12.536;2022-08-30T15:49:05;2.30;;;0.60;;
51664;SDS011;37751;52.408;12.536;2022-08-30T15:51:36;4.97;;;0.85;;
51664;SDS011;37751;52.408;12.536;2022-08-30T15:54:11;5.82;;;1.05;;
51664;SDS011;37751;52.408;12.536;2022-08-30T15:56:41;2.35;;;1.08;;
51664;SDS011;37751;52.408;12.536;2022-08-30T15:59:10;2.42;;;0.60;;
51664;SDS011;37751;52.408;12.536;2022-08-30T16:01:41;1.33;;;0.75;;
51664;SDS011;37751;52.408;12.536;2022-08-30T16:04:09;3.55;;;0.70;;
51664;SDS011;37751;52.408;12.536;2022-08-30T16:06:37;1.73;;;0.50;;
51664;SDS011;37751;52.408;12.536;2022-08-30T16:09:04;4.13;;;0.93;;
51664;SDS011;37751;52.408;12.536;2022-08-30T16:11:32;4.65;;;2.60;;
51664;SDS011;37751;52.408;12.536;2022-08-30T16:13:59;5.05;;;3.03;;
51664;SDS011;37751;52.408;12.536;2022-08-30T16:16:26;3.88;;;2.10;;
51664;SDS011;37751;52.408;12.536;2022-08-30T16:18:53;3.75;;;1.75;;
51664;SDS011;37751;52.408;12.536;2022-08-30T16:21:24;2.90;;;1.42;;
51664;SDS011;37751;52.408;12.536;2022-08-30T16:23:57;3.88;;;1.23;;
51664;SDS011;37751;52.408;12.536;2022-08-30T16:26:27;4.00;;;1.05;;
51664;SDS011;37751;52.408;12.536;2022-08-30T16:28:56;3.60;;;1.20;;
51664;SDS011;37751;52.408;12.536;2022-08-30T16:31:24;2.30;;;1.00;;
51664;SDS011;37751;52.408;12.536;2022-08-30T16:33:53;2.35;;;0.90;;